sensor_id;sensor_type;location;lat;lon;timestamp;P1;durP1;ratioP1;P2;durP2;ratioP2
20593;SDS011;10455;48.732;10.266;2023-04-01T00:04:20;2.73;;;1.80;;
20593;SDS011;10455;48.732;10.266;2023-04-01T00:09:22;3.33;;;2.10;;
20593;SDS011;10455;48.732;10.266;2023-04-01T00:14:24;3.00;;;1.87;;
20593;SDS011;10455;48.732;10.266;2023-04-01T00:19:27;2.87;;;2.03;;
20593;SDS011;10455;48.732;10.266;2023-04-01T00:24:29;6.50;;;2.20;;
20593;SDS011;10455;48.732;10.266;2023-04-01T00:29:31;3.40;;;2.17;;
20593;SDS011;10455;48.732;10.266;2023-04-01T00:34:35;2.80;;;1.83;;
20593;SDS011;10455;48.732;10.266;2023-04-01T00:39:36;2.37;;;1.83;;
20593;SDS011;10455;48.732;10.266;2023-04-01T00:44:39;1.83;;;1.70;;
20593;SDS011;10455;48.732;10.266;2023-04-01T00:49:43;3.07;;;2.00;;
20593;SDS011;10455;48.732;10.266;2023-04-01T00:54:48;2.60;;;1.90;;
20593;SDS011;10455;48.732;10.266;2023-04-01T00:59:54;4.63;;;1.90;;
20593;SDS011;10455;48.732;10.266;2023-04-01T01:04:58;2.13;;;1.83;;
20593;SDS011;10455;48.732;10.266;2023-04-01T01:10:01;6.00;;;2.13;;
20593;SDS011;10455;48.732;10.266;2023-04-01T01:15:10;3.57;;;1.90;;
20593;SDS011;10455;48.732;10.266;2023-04-01T01:20:42;4.77;;;2.10;;
20593;SDS011;10455;48.732;10.266;2023-04-01T01:25:59;2.23;;;1.80;;
20593;SDS011;10455;48.732;10.266;2023-04-01T01:31:18;2.90;;;2.00;;
20593;SDS011;10455;48.732;10.266;2023-04-01T01:36:24;2.33;;;2.10;;
20593;SDS011;10455;48.732;10.266;2023-04-01T01:41:30;5.50;;;2.00;;
20593;SDS011;10455;48.732;10.266;2023-04-01T01:46:33;2.93;;;1.87;;
20593;SDS011;10455;48.732;10.266;2023-04-01T01:51:37;2.53;;;1.63;;
20593;SDS011;10455;48.732;10.266;2023-04-01T01:56:40;2.17;;;1.80;;
20593;SDS011;10455;48.732;10.266;2023-04-01T02:01:44;3.27;;;1.83;;
20593;SDS011;10455;48.732;10.266;2023-04-01T02:06:53;4.13;;;1.90;;
20593;SDS011;10455;48.732;10.266;2023-04-01T02:11:59;2.90;;;1.70;;
20593;SDS011;10455;48.732;10.266;2023-04-01T02:17:06;2.93;;;2.00;;
20593;SDS011;10455;48.732;10.266;2023-04-01T02:22:12;7.20;;;1.87;;
20593;SDS011;10455;48.732;10.266;2023-04-01T02:27:17;2.53;;;1.97;;
20593;SDS011;10455;48.732;10.266;2023-04-01T02:32:20;3.33;;;1.70;;
20593;SDS011;10455;48.732;10.266;2023-04-01T02:37:24;5.17;;;1.97;;
20593;SDS011;10455;48.732;10.266;2023-04-01T02:42:26;2.10;;;1.80;;
20593;SDS011;10455;48.732;10.266;2023-04-01T02:47:27;2.80;;;1.87;;
20593;SDS011;10455;48.732;10.266;2023-04-01T02:52:31;3.03;;;2.10;;
20593;SDS011;10455;48.732;10.266;2023-04-01T02:57:33;3.67;;;1.80;;
20593;SDS011;10455;48.732;10.266;2023-04-01T03:02:35;6.07;;;2.20;;
20593;SDS011;10455;48.732;10.266;2023-04-01T03:07:38;2.40;;;1.80;;
20593;SDS011;10455;48.732;10.266;2023-04-01T03:12:40;2.43;;;1.70;;
20593;SDS011;10455;48.732;10.266;2023-04-01T03:17:42;2.90;;;1.60;;
20593;SDS011;10455;48.732;10.266;2023-04-01T03:22:45;4.40;;;1.83;;
20593;SDS011;10455;48.732;10.266;2023-04-01T03:27:47;2.23;;;1.70;;
20593;SDS011;10455;48.732;10.266;2023-04-01T03:32:49;1.87;;;1.73;;
20593;SDS011;10455;48.732;10.266;2023-04-01T03:37:53;4.40;;;1.70;;
20593;SDS011;10455;48.732;10.266;2023-04-01T03:42:55;3.53;;;1.80;;
20593;SDS011;10455;48.732;10.266;2023-04-01T03:47:57;1.60;;;1.50;;
20593;SDS011;10455;48.732;10.266;2023-04-01T03:53:00;4.30;;;1.60;;
20593;SDS011;10455;48.732;10.266;2023-04-01T03:58:02;5.07;;;1.70;;
20593;SDS011;10455;48.732;10.266;2023-04-01T04:03:05;3.03;;;1.70;;
20593;SDS011;10455;48.732;10.266;2023-04-01T04:08:09;3.00;;;1.60;;
20593;SDS011;10455;48.732;10.266;2023-04-01T04:13:11;2.97;;;1.70;;
20593;SDS011;10455;48.732;10.266;2023-04-01T04:18:12;2.47;;;1.40;;
20593;SDS011;10455;48.732;10.266;2023-04-01T04:23:16;1.60;;;1.50;;
20593;SDS011;10455;48.732;10.266;2023-04-01T04:28:18;1.70;;;1.60;;
20593;SDS011;10455;48.732;10.266;2023-04-01T04:33:20;1.60;;;1.50;;
20593;SDS011;10455;48.732;10.266;2023-04-01T04:38:24;2.23;;;1.57;;
20593;SDS011;10455;48.732;10.266;2023-04-01T04:43:27;2.00;;;1.60;;
20593;SDS011;10455;48.732;10.266;2023-04-01T04:48:29;1.70;;;1.60;;
20593;SDS011;10455;48.732;10.266;2023-04-01T04:53:32;1.47;;;1.40;;
20593;SDS011;10455;48.732;10.266;2023-04-01T04:58:34;1.60;;;1.50;;
20593;SDS011;10455;48.732;10.266;2023-04-01T05:03:36;1.60;;;1.50;;
20593;SDS011;10455;48.732;10.266;2023-04-01T05:08:40;1.50;;;1.43;;
20593;SDS011;10455;48.732;10.266;2023-04-01T05:13:43;3.27;;;2.97;;
20593;SDS011;10455;48.732;10.266;2023-04-01T05:18:46;1.70;;;1.60;;
20593;SDS011;10455;48.732;10.266;2023-04-01T05:23:50;1.63;;;1.50;;
20593;SDS011;10455;48.732;10.266;2023-04-01T05:28:52;1.47;;;1.37;;
20593;SDS011;10455;48.732;10.266;2023-04-01T05:33:54;2.60;;;1.40;;
20593;SDS011;10455;48.732;10.266;2023-04-01T05:38:57;1.30;;;1.30;;
20593;SDS011;10455;48.732;10.266;2023-04-01T05:43:59;2.50;;;1.40;;
20593;SDS011;10455;48.732;10.266;2023-04-01T05:49:01;1.60;;;1.50;;
20593;SDS011;10455;48.732;10.266;2023-04-01T05:54:05;1.47;;;1.37;;
20593;SDS011;10455;48.732;10.266;2023-04-01T05:59:09;1.53;;;1.43;;
20593;SDS011;10455;48.732;10.266;2023-04-01T06:04:13;1.70;;;1.60;;
20593;SDS011;10455;48.732;10.266;2023-04-01T06:09:18;1.77;;;1.67;;
20593;SDS011;10455;48.732;10.266;2023-04-01T06:14:27;1.80;;;1.70;;
20593;SDS011;10455;48.732;10.266;2023-04-01T06:19:40;3.43;;;1.80;;
20593;SDS011;10455;48.732;10.266;2023-04-01T06:24:53;1.97;;;1.87;;
20593;SDS011;10455;48.732;10.266;2023-04-01T06:30:24;2.30;;;2.10;;
20593;SDS011;10455;48.732;10.266;2023-04-01T06:35:35;3.37;;;2.17;;
20593;SDS011;10455;48.732;10.266;2023-04-01T06:41:13;7.33;;;2.60;;
20593;SDS011;10455;48.732;10.266;2023-04-01T06:46:43;2.67;;;2.00;;
20593;SDS011;10455;48.732;10.266;2023-04-01T06:51:48;2.50;;;2.10;;
20593;SDS011;10455;48.732;10.266;2023-04-01T06:57:00;2.50;;;2.10;;
20593;SDS011;10455;48.732;10.266;2023-04-01T07:02:05;2.00;;;1.90;;
20593;SDS011;10455;48.732;10.266;2023-04-01T07:07:21;2.80;;;1.93;;
20593;SDS011;10455;48.732;10.266;2023-04-01T07:12:35;1.80;;;1.70;;
20593;SDS011;10455;48.732;10.266;2023-04-01T07:17:43;2.10;;;2.00;;
20593;SDS011;10455;48.732;10.266;2023-04-01T07:22:47;1.80;;;1.70;;
20593;SDS011;10455;48.732;10.266;2023-04-01T07:27:54;1.80;;;1.70;;
20593;SDS011;10455;48.732;10.266;2023-04-01T07:33:02;2.07;;;1.83;;
20593;SDS011;10455;48.732;10.266;2023-04-01T07:38:12;3.63;;;2.10;;
20593;SDS011;10455;48.732;10.266;2023-04-01T07:43:32;3.03;;;2.10;;
20593;SDS011;10455;48.732;10.266;2023-04-01T07:48:45;2.50;;;2.30;;
20593;SDS011;10455;48.732;10.266;2023-04-01T07:53:51;2.23;;;2.10;;
20593;SDS011;10455;48.732;10.266;2023-04-01T07:59:05;3.77;;;2.60;;
20593;SDS011;10455;48.732;10.266;2023-04-01T08:09:41;2.93;;;2.57;;
20593;SDS011;10455;48.732;10.266;2023-04-01T08:15:02;2.77;;;2.53;;
20593;SDS011;10455;48.732;10.266;2023-04-01T08:20:18;2.20;;;2.10;;
20593;SDS011;10455;48.732;10.266;2023-04-01T08:25:28;2.80;;;2.17;;
20593;SDS011;10455;48.732;10.266;2023-04-01T08:30:35;5.20;;;2.03;;
20593;SDS011;10455;48.732;10.266;2023-04-01T08:35:43;2.17;;;1.70;;
20593;SDS011;10455;48.732;10.266;2023-04-01T08:41:00;2.80;;;1.67;;
20593;SDS011;10455;48.732;10.266;2023-04-01T08:46:15;2.40;;;1.50;;
20593;SDS011;10455;48.732;10.266;2023-04-01T08:51:51;2.80;;;1.60;;
20593;SDS011;10455;48.732;10.266;2023-04-01T08:57:11;5.47;;;1.90;;
20593;SDS011;10455;48.732;10.266;2023-04-01T09:07:59;1.80;;;1.70;;
20593;SDS011;10455;48.732;10.266;2023-04-01T09:13:13;4.93;;;1.50;;
20593;SDS011;10455;48.732;10.266;2023-04-01T09:18:42;2.37;;;1.70;;
20593;SDS011;10455;48.732;10.266;2023-04-01T09:35:21;3.00;;;1.80;;
20593;SDS011;10455;48.732;10.266;2023-04-01T09:40:26;2.77;;;1.80;;
20593;SDS011;10455;48.732;10.266;2023-04-01T09:45:41;4.77;;;2.10;;
20593;SDS011;10455;48.732;10.266;2023-04-01T09:50:52;2.20;;;2.00;;
20593;SDS011;10455;48.732;10.266;2023-04-01T09:56:19;2.00;;;1.90;;
20593;SDS011;10455;48.732;10.266;2023-04-01T10:01:43;3.23;;;1.97;;
20593;SDS011;10455;48.732;10.266;2023-04-01T10:12:38;1.70;;;1.60;;
20593;SDS011;10455;48.732;10.266;2023-04-01T10:18:10;2.70;;;1.70;;
20593;SDS011;10455;48.732;10.266;2023-04-01T10:23:35;3.00;;;1.80;;
20593;SDS011;10455;48.732;10.266;2023-04-01T10:29:01;2.80;;;1.40;;
20593;SDS011;10455;48.732;10.266;2023-04-01T10:34:27;1.63;;;1.43;;
20593;SDS011;10455;48.732;10.266;2023-04-01T10:39:55;1.43;;;1.33;;
20593;SDS011;10455;48.732;10.266;2023-04-01T10:51:01;1.63;;;1.53;;
20593;SDS011;10455;48.732;10.266;2023-04-01T10:56:36;1.77;;;1.67;;
20593;SDS011;10455;48.732;10.266;2023-04-01T11:01:53;1.60;;;1.50;;
20593;SDS011;10455;48.732;10.266;2023-04-01T11:07:22;2.10;;;1.60;;
20593;SDS011;10455;48.732;10.266;2023-04-01T11:13:10;1.60;;;1.50;;
20593;SDS011;10455;48.732;10.266;2023-04-01T11:24:46;1.57;;;1.47;;
20593;SDS011;10455;48.732;10.266;2023-04-01T11:30:29;1.50;;;1.40;;
20593;SDS011;10455;48.732;10.266;2023-04-01T11:35:50;2.33;;;1.50;;
20593;SDS011;10455;48.732;10.266;2023-04-01T11:46:03;1.30;;;1.30;;
20593;SDS011;10455;48.732;10.266;2023-04-01T11:56:48;1.43;;;1.33;;
20593;SDS011;10455;48.732;10.266;2023-04-01T12:02:01;1.50;;;1.40;;
20593;SDS011;10455;48.732;10.266;2023-04-01T12:07:19;1.53;;;1.43;;
20593;SDS011;10455;48.732;10.266;2023-04-01T12:12:30;1.50;;;1.40;;
20593;SDS011;10455;48.732;10.266;2023-04-01T12:17:43;5.93;;;1.40;;
20593;SDS011;10455;48.732;10.266;2023-04-01T12:22:53;1.40;;;1.30;;
20593;SDS011;10455;48.732;10.266;2023-04-01T12:28:05;1.43;;;1.33;;
20593;SDS011;10455;48.732;10.266;2023-04-01T12:33:24;1.50;;;1.40;;
20593;SDS011;10455;48.732;10.266;2023-04-01T12:38:39;1.50;;;1.40;;
20593;SDS011;10455;48.732;10.266;2023-04-01T12:43:55;1.30;;;1.30;;
20593;SDS011;10455;48.732;10.266;2023-04-01T12:49:29;1.40;;;1.23;;
20593;SDS011;10455;48.732;10.266;2023-04-01T13:00:39;2.20;;;1.63;;
20593;SDS011;10455;48.732;10.266;2023-04-01T13:06:03;2.00;;;1.50;;
20593;SDS011;10455;48.732;10.266;2023-04-01T13:11:20;1.50;;;1.40;;
20593;SDS011;10455;48.732;10.266;2023-04-01T13:16:30;1.50;;;1.40;;
20593;SDS011;10455;48.732;10.266;2023-04-01T13:21:38;1.90;;;1.50;;
20593;SDS011;10455;48.732;10.266;2023-04-01T13:26:51;1.47;;;1.37;;
20593;SDS011;10455;48.732;10.266;2023-04-01T13:37:25;1.83;;;1.47;;
20593;SDS011;10455;48.732;10.266;2023-04-01T13:42:37;1.30;;;1.30;;
20593;SDS011;10455;48.732;10.266;2023-04-01T13:47:51;1.43;;;1.33;;
20593;SDS011;10455;48.732;10.266;2023-04-01T13:53:24;1.40;;;1.30;;
20593;SDS011;10455;48.732;10.266;2023-04-01T13:58:53;1.17;;;1.17;;
20593;SDS011;10455;48.732;10.266;2023-04-01T14:10:21;1.50;;;1.40;;
20593;SDS011;10455;48.732;10.266;2023-04-01T14:20:54;2.10;;;2.00;;
20593;SDS011;10455;48.732;10.266;2023-04-01T14:32:12;1.50;;;1.40;;
20593;SDS011;10455;48.732;10.266;2023-04-01T14:43:25;1.57;;;1.47;;
20593;SDS011;10455;48.732;10.266;2023-04-01T14:48:51;1.30;;;1.30;;
20593;SDS011;10455;48.732;10.266;2023-04-01T14:54:00;1.57;;;1.47;;
20593;SDS011;10455;48.732;10.266;2023-04-01T15:10:12;1.50;;;1.40;;
20593;SDS011;10455;48.732;10.266;2023-04-01T15:15:35;1.97;;;1.40;;
20593;SDS011;10455;48.732;10.266;2023-04-01T15:20:51;1.60;;;1.50;;
20593;SDS011;10455;48.732;10.266;2023-04-01T15:26:22;1.77;;;1.40;;
20593;SDS011;10455;48.732;10.266;2023-04-01T15:31:36;1.43;;;1.33;;
20593;SDS011;10455;48.732;10.266;2023-04-01T15:36:43;1.30;;;1.30;;
20593;SDS011;10455;48.732;10.266;2023-04-01T15:41:56;1.47;;;1.37;;
20593;SDS011;10455;48.732;10.266;2023-04-01T15:47:25;1.53;;;1.43;;
20593;SDS011;10455;48.732;10.266;2023-04-01T15:52:47;1.30;;;1.30;;
20593;SDS011;10455;48.732;10.266;2023-04-01T15:58:06;1.57;;;1.40;;
20593;SDS011;10455;48.732;10.266;2023-04-01T16:03:36;1.60;;;1.50;;
20593;SDS011;10455;48.732;10.266;2023-04-01T16:14:11;1.60;;;1.50;;
20593;SDS011;10455;48.732;10.266;2023-04-01T16:19:31;1.80;;;1.70;;
20593;SDS011;10455;48.732;10.266;2023-04-01T16:24:41;1.50;;;1.40;;
20593;SDS011;10455;48.732;10.266;2023-04-01T16:29:48;2.03;;;1.50;;
20593;SDS011;10455;48.732;10.266;2023-04-01T16:34:56;1.60;;;1.50;;
20593;SDS011;10455;48.732;10.266;2023-04-01T16:40:12;1.53;;;1.43;;
20593;SDS011;10455;48.732;10.266;2023-04-01T16:45:26;1.80;;;1.50;;
20593;SDS011;10455;48.732;10.266;2023-04-01T16:50:39;2.33;;;1.60;;
20593;SDS011;10455;48.732;10.266;2023-04-01T16:55:55;1.70;;;1.60;;
20593;SDS011;10455;48.732;10.266;2023-04-01T17:01:05;1.60;;;1.50;;
20593;SDS011;10455;48.732;10.266;2023-04-01T17:06:17;1.97;;;1.80;;
20593;SDS011;10455;48.732;10.266;2023-04-01T17:11:29;1.97;;;1.70;;
20593;SDS011;10455;48.732;10.266;2023-04-01T17:22:13;1.80;;;1.70;;
20593;SDS011;10455;48.732;10.266;2023-04-01T17:27:33;3.07;;;1.80;;
20593;SDS011;10455;48.732;10.266;2023-04-01T17:32:47;3.20;;;1.90;;
20593;SDS011;10455;48.732;10.266;2023-04-01T17:37:59;1.90;;;1.80;;
20593;SDS011;10455;48.732;10.266;2023-04-01T17:43:17;2.07;;;1.83;;
20593;SDS011;10455;48.732;10.266;2023-04-01T17:48:34;1.90;;;1.80;;
20593;SDS011;10455;48.732;10.266;2023-04-01T17:53:44;2.00;;;1.80;;
20593;SDS011;10455;48.732;10.266;2023-04-01T17:58:58;1.80;;;1.70;;
20593;SDS011;10455;48.732;10.266;2023-04-01T18:04:11;1.67;;;1.57;;
20593;SDS011;10455;48.732;10.266;2023-04-01T18:09:39;1.90;;;1.70;;
20593;SDS011;10455;48.732;10.266;2023-04-01T18:14:57;1.77;;;1.67;;
20593;SDS011;10455;48.732;10.266;2023-04-01T18:20:18;2.20;;;1.93;;
20593;SDS011;10455;48.732;10.266;2023-04-01T18:25:32;2.57;;;1.97;;
20593;SDS011;10455;48.732;10.266;2023-04-01T18:30:39;3.13;;;1.83;;
20593;SDS011;10455;48.732;10.266;2023-04-01T18:35:45;3.00;;;1.93;;
20593;SDS011;10455;48.732;10.266;2023-04-01T18:40:53;2.10;;;1.90;;
20593;SDS011;10455;48.732;10.266;2023-04-01T18:46:05;3.10;;;2.10;;
20593;SDS011;10455;48.732;10.266;2023-04-01T18:51:13;2.20;;;2.00;;
20593;SDS011;10455;48.732;10.266;2023-04-01T18:56:22;3.60;;;2.37;;
20593;SDS011;10455;48.732;10.266;2023-04-01T19:01:31;2.43;;;2.10;;
20593;SDS011;10455;48.732;10.266;2023-04-01T19:06:41;2.90;;;2.20;;
20593;SDS011;10455;48.732;10.266;2023-04-01T19:11:54;2.10;;;1.90;;
20593;SDS011;10455;48.732;10.266;2023-04-01T19:17:15;2.73;;;1.90;;
20593;SDS011;10455;48.732;10.266;2023-04-01T19:22:31;4.17;;;3.20;;
20593;SDS011;10455;48.732;10.266;2023-04-01T19:27:46;3.23;;;2.90;;
20593;SDS011;10455;48.732;10.266;2023-04-01T19:32:54;4.10;;;3.70;;
20593;SDS011;10455;48.732;10.266;2023-04-01T19:38:03;4.10;;;2.73;;
20593;SDS011;10455;48.732;10.266;2023-04-01T19:43:14;3.10;;;2.80;;
20593;SDS011;10455;48.732;10.266;2023-04-01T19:48:34;4.23;;;3.20;;
20593;SDS011;10455;48.732;10.266;2023-04-01T19:53:51;4.30;;;3.00;;
20593;SDS011;10455;48.732;10.266;2023-04-01T19:59:01;2.77;;;2.47;;
20593;SDS011;10455;48.732;10.266;2023-04-01T20:04:11;2.83;;;2.50;;
20593;SDS011;10455;48.732;10.266;2023-04-01T20:09:31;3.47;;;2.60;;
20593;SDS011;10455;48.732;10.266;2023-04-01T20:14:45;2.83;;;2.30;;
20593;SDS011;10455;48.732;10.266;2023-04-01T20:19:53;2.33;;;2.13;;
20593;SDS011;10455;48.732;10.266;2023-04-01T20:25:02;3.53;;;2.80;;
20593;SDS011;10455;48.732;10.266;2023-04-01T20:36:09;2.23;;;1.90;;
20593;SDS011;10455;48.732;10.266;2023-04-01T20:41:20;3.40;;;2.30;;
20593;SDS011;10455;48.732;10.266;2023-04-01T20:46:27;2.77;;;2.07;;
20593;SDS011;10455;48.732;10.266;2023-04-01T20:51:39;2.23;;;1.93;;
20593;SDS011;10455;48.732;10.266;2023-04-01T20:56:47;5.03;;;2.20;;
20593;SDS011;10455;48.732;10.266;2023-04-01T21:02:05;2.17;;;2.00;;
20593;SDS011;10455;48.732;10.266;2023-04-01T21:07:29;3.83;;;2.13;;
20593;SDS011;10455;48.732;10.266;2023-04-01T21:12:38;2.30;;;2.03;;
20593;SDS011;10455;48.732;10.266;2023-04-01T21:17:53;2.70;;;1.90;;
20593;SDS011;10455;48.732;10.266;2023-04-01T21:28:40;4.07;;;1.93;;
20593;SDS011;10455;48.732;10.266;2023-04-01T21:33:58;3.53;;;2.20;;
20593;SDS011;10455;48.732;10.266;2023-04-01T21:39:38;5.10;;;2.43;;
20593;SDS011;10455;48.732;10.266;2023-04-01T21:50:44;4.53;;;2.50;;
20593;SDS011;10455;48.732;10.266;2023-04-01T21:56:11;5.10;;;2.30;;
20593;SDS011;10455;48.732;10.266;2023-04-01T22:07:23;2.30;;;2.10;;
20593;SDS011;10455;48.732;10.266;2023-04-01T22:12:33;2.50;;;2.27;;
20593;SDS011;10455;48.732;10.266;2023-04-01T22:17:40;2.93;;;1.97;;
20593;SDS011;10455;48.732;10.266;2023-04-01T22:22:54;2.20;;;2.00;;
20593;SDS011;10455;48.732;10.266;2023-04-01T22:28:05;2.40;;;2.20;;
20593;SDS011;10455;48.732;10.266;2023-04-01T22:33:12;4.80;;;2.40;;
20593;SDS011;10455;48.732;10.266;2023-04-01T22:38:20;2.37;;;2.17;;
20593;SDS011;10455;48.732;10.266;2023-04-01T22:43:36;2.60;;;2.40;;
20593;SDS011;10455;48.732;10.266;2023-04-01T22:48:39;2.77;;;2.10;;
20593;SDS011;10455;48.732;10.266;2023-04-01T22:53:52;3.40;;;2.37;;
20593;SDS011;10455;48.732;10.266;2023-04-01T22:59:06;3.07;;;2.40;;
20593;SDS011;10455;48.732;10.266;2023-04-01T23:04:12;6.27;;;2.77;;
20593;SDS011;10455;48.732;10.266;2023-04-01T23:09:18;2.90;;;2.70;;
20593;SDS011;10455;48.732;10.266;2023-04-01T23:19:49;3.87;;;2.70;;
20593;SDS011;10455;48.732;10.266;2023-04-01T23:24:59;3.87;;;2.93;;
20593;SDS011;10455;48.732;10.266;2023-04-01T23:35:47;5.17;;;2.80;;
20593;SDS011;10455;48.732;10.266;2023-04-01T23:40:50;3.17;;;2.27;;
20593;SDS011;10455;48.732;10.266;2023-04-01T23:45:54;2.70;;;2.50;;
20593;SDS011;10455;48.732;10.266;2023-04-01T23:50:58;2.77;;;2.50;;
20593;SDS011;10455;48.732;10.266;2023-04-01T23:56:01;2.50;;;2.30;;
